Time;durP1;ratioP1;P1;durP2;ratioP2;P2;SDS_P1;SDS_P2;PMS_P1;PMS_P2;Temp;Humidity;BMP_temperature;BMP_pressure;BME280_temperature;BME280_humidity;BME280_pressure;Samples;Min_cycle;Max_cycle;Signal;HPM_P1;HPM_P2
2022/01/19 00:02:18;;;;;;;119.13;55.10;;;77.50;2227.20;;;;;;5050200;28;20108;-55
2022/01/19 00:04:43;;;;;;;37.90;16.65;;;77.50;2227.20;;;;;;5050534;28;20605;-58
2022/01/19 00:07:10;;;;;;;32.00;15.02;;;77.50;2227.20;;;;;;5050167;28;20119;-59
2022/01/19 00:09:35;;;;;;;22.23;10.15;;;77.50;2227.20;;;;;;5050538;28;20491;-58
2022/01/19 00:12:01;;;;;;;19.98;9.55;;;77.30;2227.20;;;;;;5050352;28;20025;-59
2022/01/19 00:14:29;;;;;;;227.50;90.68;;;77.30;2227.20;;;;;;5050065;28;20044;-57
2022/01/19 00:16:55;;;;;;;39.30;19.08;;;77.40;2227.20;;;;;;5050410;28;20056;-59
2022/01/19 00:19:20;;;;;;;140.57;60.33;;;77.40;2227.20;;;;;;5050604;28;20084;-59
2022/01/19 00:21:46;;;;;;;93.68;44.50;;;77.40;2227.20;;;;;;5052624;28;20025;-57
2022/01/19 00:24:12;;;;;;;41.58;20.20;;;77.30;2227.20;;;;;;5052460;28;20039;-58
2022/01/19 00:26:38;;;;;;;64.35;28.55;;;77.40;2227.20;;;;;;5052174;28;20029;-59
2022/01/19 00:29:03;;;;;;;115.88;47.30;;;77.20;2227.20;;;;;;5052555;28;20067;-59
2022/01/19 00:31:29;;;;;;;74.88;34.00;;;77.30;2227.20;;;;;;5051940;28;20025;-58
2022/01/19 00:33:55;;;;;;;109.35;45.75;;;77.30;2227.20;;;;;;5051932;28;20029;-60
2022/01/19 00:36:21;;;;;;;205.10;87.82;;;77.20;2227.20;;;;;;5051913;28;20025;-59
2022/01/19 00:38:46;;;;;;;100.10;43.42;;;77.20;2227.20;;;;;;5052059;28;20560;-59
2022/01/19 00:41:12;;;;;;;29.98;14.38;;;77.20;2227.20;;;;;;5051956;28;20067;-59
2022/01/19 00:43:38;;;;;;;16.75;9.07;;;77.30;2227.20;;;;;;5052110;28;20031;-58
2022/01/19 00:46:04;;;;;;;152.38;56.75;;;77.20;2227.20;;;;;;5051643;28;20509;-59
2022/01/19 00:48:30;;;;;;;36.50;16.83;;;77.10;2227.20;;;;;;5051927;28;20098;-59
2022/01/19 00:50:59;;;;;;;29.67;16.50;;;77.20;2227.20;;;;;;5051300;28;20032;-60
2022/01/19 00:53:26;;;;;;;50.47;23.73;;;77.30;2227.20;;;;;;5051946;28;20060;-57
2022/01/19 00:55:52;;;;;;;94.95;41.88;;;77.10;2227.20;;;;;;5051610;28;20025;-58
2022/01/19 00:58:18;;;;;;;58.78;26.60;;;77.10;2227.20;;;;;;5051555;28;20028;-55
2022/01/19 01:00:43;;;;;;;58.10;28.13;;;77.00;2227.20;;;;;;5051718;28;20035;-59
2022/01/19 01:03:10;;;;;;;50.42;23.92;;;77.10;2227.20;;;;;;5051345;28;20029;-57
2022/01/19 01:05:36;;;;;;;33.05;18.20;;;77.00;2227.20;;;;;;5051573;28;20040;-56
2022/01/19 01:08:02;;;;;;;74.38;41.20;;;77.10;2227.20;;;;;;5051538;28;20179;-59
2022/01/19 01:10:30;;;;;;;74.60;30.77;;;77.10;2227.20;;;;;;5051304;28;20021;-59
2022/01/19 01:13:06;;;;;;;57.00;25.30;;;77.10;2227.20;;;;;;5051327;28;20033;-59
2022/01/19 01:15:48;;;;;;;150.95;63.35;;;77.20;2227.20;;;;;;5051455;28;20117;-59
2022/01/19 01:18:18;;;;;;;67.55;31.23;;;77.20;2227.20;;;;;;5051338;28;20049;-58
2022/01/19 01:20:44;;;;;;;54.65;20.00;;;77.30;2227.20;;;;;;5051428;28;20025;-58
2022/01/19 01:23:10;;;;;;;152.45;57.95;;;77.30;2227.20;;;;;;5051077;28;20036;-58
2022/01/19 01:25:37;;;;;;;38.40;17.50;;;77.30;2227.20;;;;;;5051174;28;20028;-59
2022/01/19 01:28:04;;;;;;;69.35;27.67;;;77.20;2227.20;;;;;;5051392;28;20091;-58
2022/01/19 01:30:29;;;;;;;98.78;39.70;;;77.20;2227.20;;;;;;5051054;28;20047;-59
2022/01/19 01:32:55;;;;;;;135.75;55.45;;;77.20;2227.20;;;;;;5050830;28;20029;-59
2022/01/19 01:35:21;;;;;;;117.18;45.83;;;77.30;2227.20;;;;;;5050807;28;20032;-59
2022/01/19 01:37:47;;;;;;;63.00;24.60;;;77.40;2227.20;;;;;;5050876;28;20044;-59
2022/01/19 01:40:13;;;;;;;73.50;30.35;;;77.40;2227.20;;;;;;5051044;28;20025;-58
2022/01/19 01:42:40;;;;;;;210.68;73.00;;;77.30;2227.20;;;;;;5050908;28;20056;-59
2022/01/19 01:45:11;;;;;;;42.70;18.58;;;77.40;2227.20;;;;;;5051025;28;20086;-58
2022/01/19 01:47:43;;;;;;;33.60;14.10;;;77.40;2227.20;;;;;;5050835;28;20427;-59
2022/01/19 01:55:23;;;;;;;62.97;29.42;;;77.60;2227.20;;;;;;5050785;28;20035;-59
2022/01/19 01:57:49;;;;;;;59.42;26.90;;;77.60;2227.20;;;;;;5050585;28;20025;-57
2022/01/19 02:00:20;;;;;;;35.70;17.73;;;77.70;2227.20;;;;;;5050321;28;20033;-58
2022/01/19 02:02:47;;;;;;;114.90;45.17;;;77.50;2227.20;;;;;;5050475;28;20471;-56
2022/01/19 02:05:14;;;;;;;47.13;16.50;;;77.60;2227.20;;;;;;5050296;28;20094;-58
2022/01/19 02:08:02;;;;;;;64.53;27.83;;;77.60;2227.20;;;;;;5049975;28;20057;-58
2022/01/19 02:24:16;;;;;;;15.63;7.30;;;77.30;2227.20;;;;;;5050308;28;20024;-58
2022/01/19 02:27:09;;;;;;;19.55;6.90;;;77.30;2227.20;;;;;;5050298;28;20080;-58
2022/01/19 02:40:28;;;;;;;23.73;10.88;;;77.20;2227.20;;;;;;5050313;28;20146;-60
2022/01/19 02:50:38;;;;;;;52.40;22.42;;;77.00;2227.20;;;;;;5050152;28;20040;-56
2022/01/19 02:53:04;;;;;;;27.73;12.20;;;76.90;2227.20;;;;;;5050058;28;20048;-58
2022/01/19 02:55:32;;;;;;;22.00;9.15;;;76.90;2227.20;;;;;;5049840;28;20471;-59
2022/01/19 02:57:58;;;;;;;195.20;90.10;;;76.80;2227.20;;;;;;5049856;28;20029;-57
2022/01/19 03:08:44;;;;;;;32.50;14.25;;;52.00;2227.20;;;;;;5049754;28;20052;-58
2022/01/19 03:11:20;;;;;;;21.52;9.95;;;51.90;2227.20;;;;;;5049632;28;20371;-58
2022/01/19 03:13:47;;;;;;;43.72;19.38;;;52.00;2227.20;;;;;;5049752;28;20098;-57
2022/01/19 03:16:14;;;;;;;57.40;28.20;;;51.90;2227.20;;;;;;5053467;28;20104;-58
2022/01/19 03:18:39;;;;;;;33.90;13.05;;;52.00;2227.20;;;;;;5053244;28;20025;-57
2022/01/19 03:21:06;;;;;;;43.88;18.75;;;52.00;2227.20;;;;;;5053771;28;20131;-59
2022/01/19 03:23:32;;;;;;;25.00;11.20;;;51.90;2227.20;;;;;;5053607;28;20060;-57
2022/01/19 03:26:01;;;;;;;17.42;8.93;;;52.00;2227.20;;;;;;5053315;28;20041;-59
2022/01/19 03:28:26;;;;;;;107.15;46.22;;;52.00;2227.20;;;;;;5053417;28;20021;-59
2022/01/19 03:30:52;;;;;;;49.40;21.15;;;51.90;2227.20;;;;;;5053391;28;20043;-58
2022/01/19 03:33:18;;;;;;;177.65;76.97;;;51.90;2227.20;;;;;;5053103;28;20032;-57
2022/01/19 03:35:45;;;;;;;33.47;15.95;;;51.80;2227.20;;;;;;5053492;28;20040;-58
2022/01/19 03:38:12;;;;;;;19.20;10.07;;;51.70;2227.20;;;;;;5053049;28;20032;-58
2022/01/19 03:40:39;;;;;;;18.52;9.77;;;51.70;2227.20;;;;;;5052918;28;20059;-57
2022/01/19 03:43:05;;;;;;;29.58;13.75;;;51.70;2227.20;;;;;;5053094;28;20029;-56
2022/01/19 03:45:33;;;;;;;94.10;43.15;;;51.70;2227.20;;;;;;5053060;28;20032;-57
2022/01/19 03:48:17;;;;;;;57.72;24.33;;;51.70;2227.20;;;;;;5052821;28;20021;-57
2022/01/19 03:50:42;;;;;;;154.95;74.57;;;51.60;2227.20;;;;;;5052967;28;20041;-55
2022/01/19 03:53:09;;;;;;;81.28;34.30;;;51.50;2227.20;;;;;;5052814;28;20061;-57
2022/01/19 03:55:34;;;;;;;52.45;24.20;;;51.50;2227.20;;;;;;5053058;28;20397;-57
2022/01/19 03:58:00;;;;;;;48.67;23.60;;;51.40;2227.20;;;;;;5052668;28;20100;-58
2022/01/19 04:00:26;;;;;;;38.70;16.10;;;51.30;2227.20;;;;;;5052870;28;20039;-57
2022/01/19 04:02:52;;;;;;;148.65;65.95;;;51.20;2227.20;;;;;;5052517;28;20021;-57
2022/01/19 04:05:37;;;;;;;33.35;20.00;;;51.30;2227.20;;;;;;5052552;28;20036;-58
2022/01/19 04:08:03;;;;;;;112.63;50.60;;;51.30;2227.20;;;;;;5052813;28;20061;-56
2022/01/19 04:10:29;;;;;;;146.68;65.90;;;51.20;2227.20;;;;;;5052351;28;20044;-54
2022/01/19 04:13:08;;;;;;;47.83;23.30;;;51.20;2227.20;;;;;;5052578;28;20033;-56
2022/01/19 04:15:36;;;;;;;99.93;54.17;;;26.50;2201.60;;;;;;5052562;28;20082;-56
2022/01/19 04:18:05;;;;;;;44.05;22.17;;;26.40;2201.60;;;;;;5052533;28;20086;-57
2022/01/19 04:20:40;;;;;;;159.45;69.75;;;26.40;2201.60;;;;;;5052600;28;20471;-59
2022/01/19 04:23:06;;;;;;;131.75;67.43;;;26.30;2201.60;;;;;;5052337;28;20036;-55
2022/01/19 04:25:31;;;;;;;103.38;43.35;;;26.30;2201.60;;;;;;5051660;28;20119;-58
2022/01/19 04:27:57;;;;;;;98.35;44.47;;;26.30;2201.60;;;;;;5051604;28;20031;-55
2022/01/19 04:30:27;;;;;;;115.18;60.38;;;26.40;2201.60;;;;;;5052204;28;20060;-56
2022/01/19 04:33:06;;;;;;;52.55;25.10;;;26.30;2201.60;;;;;;5052016;28;20044;-57
2022/01/19 04:35:44;;;;;;;72.78;31.77;;;26.20;2201.60;;;;;;5052102;28;20032;-56
2022/01/19 05:15:42;;;;;;;161.60;78.10;;;25.80;2201.60;;;;;;5051508;28;20518;-54
2022/01/19 05:18:08;;;;;;;192.60;94.85;;;25.80;2201.60;;;;;;5051070;28;20064;-53
2022/01/19 05:20:34;;;;;;;213.55;104.30;;;25.70;2201.60;;;;;;5051161;28;20025;-53
2022/01/19 05:23:00;;;;;;;217.18;112.93;;;25.80;2201.60;;;;;;5051328;28;20433;-55
2022/01/19 05:25:25;;;;;;;231.57;116.07;;;25.80;2201.60;;;;;;5051260;28;20041;-55
2022/01/19 05:27:51;;;;;;;480.88;276.67;;;25.80;2201.60;;;;;;5051132;28;20100;-53
2022/01/19 05:30:18;;;;;;;209.13;131.52;;;25.80;2201.60;;;;;;5051167;28;20395;-53
2022/01/19 05:32:46;;;;;;;128.57;72.13;;;25.70;2201.60;;;;;;5050955;28;20033;-53
2022/01/19 05:35:13;;;;;;;81.65;49.17;;;25.60;2201.60;;;;;;5050826;28;20498;-55
2022/01/19 05:37:38;;;;;;;70.07;41.00;;;25.60;2201.60;;;;;;5050509;28;20035;-55
2022/01/19 05:40:06;;;;;;;76.07;43.60;;;0.90;2201.60;;;;;;5051370;28;20037;-54
2022/01/19 05:42:32;;;;;;;92.25;49.00;;;0.90;2201.60;;;;;;5050903;28;20028;-54
2022/01/19 05:44:58;;;;;;;73.47;39.15;;;0.80;2201.60;;;;;;5050879;28;20482;-53
2022/01/19 05:47:24;;;;;;;80.47;38.15;;;0.70;2201.60;;;;;;5050810;28;20033;-57
2022/01/19 05:49:50;;;;;;;75.00;42.50;;;0.80;2201.60;;;;;;5050471;28;20067;-55
2022/01/19 05:52:16;;;;;;;209.82;134.05;;;0.80;2201.60;;;;;;5050714;28;20124;-57
2022/01/19 05:54:42;;;;;;;46.95;25.45;;;0.80;2201.60;;;;;;5050486;28;20036;-54
2022/01/19 05:57:07;;;;;;;33.28;18.35;;;0.80;2201.60;;;;;;5050767;28;20029;-55
2022/01/19 05:59:34;;;;;;;25.10;13.35;;;0.90;2201.60;;;;;;5050694;28;20453;-53
2022/01/19 06:02:00;;;;;;;23.23;12.55;;;0.70;2201.60;;;;;;5049131;28;20028;-58
2022/01/19 06:04:26;;;;;;;18.67;9.70;;;0.70;2201.60;;;;;;5050236;28;20037;-55
2022/01/19 06:06:54;;;;;;;33.95;15.98;;;0.60;2201.60;;;;;;5050164;28;20057;-58
2022/01/19 06:09:47;;;;;;;31.23;16.70;;;0.60;2201.60;;;;;;5050206;28;20115;-54
2022/01/19 06:12:14;;;;;;;27.85;13.57;;;0.70;2201.60;;;;;;5050537;28;20108;-54
2022/01/19 06:14:42;;;;;;;24.35;13.30;;;0.60;2201.60;;;;;;5050212;28;20387;-58
2022/01/19 06:17:10;;;;;;;61.78;30.88;;;0.60;2201.60;;;;;;5050065;28;20100;-56
2022/01/19 06:19:36;;;;;;;77.97;39.00;;;0.60;2201.60;;;;;;5050166;28;20021;-56
2022/01/19 06:22:02;;;;;;;81.95;39.58;;;0.60;2201.60;;;;;;5050355;28;20032;-53
2022/01/19 06:24:28;;;;;;;80.68;38.72;;;0.60;2201.60;;;;;;5050113;28;20025;-58
2022/01/19 06:26:55;;;;;;;70.05;34.75;;;0.70;2201.60;;;;;;5050555;28;20029;-54
2022/01/19 06:29:21;;;;;;;130.60;71.35;;;0.80;2201.60;;;;;;5049987;28;20375;-59
2022/01/19 06:31:47;;;;;;;77.20;39.28;;;0.80;2201.60;;;;;;5050083;28;20033;-54
2022/01/19 06:34:13;;;;;;;36.60;17.88;;;0.80;2201.60;;;;;;5050017;28;20037;-54
2022/01/19 06:36:39;;;;;;;34.15;16.80;;;0.60;2201.60;;;;;;5049868;28;20103;-59
2022/01/19 06:39:05;;;;;;;49.85;17.40;;;0.40;2201.60;;;;;;5050293;28;20481;-56
2022/01/19 06:41:31;;;;;;;42.78;19.08;;;0.40;2201.60;;;;;;5050077;28;20021;-58
2022/01/19 06:43:57;;;;;;;30.67;16.45;;;0.10;2201.60;;;;;;5050066;28;20049;-57
2022/01/19 06:46:23;;;;;;;42.83;18.58;;;0.00;2201.60;;;;;;5050031;28;20040;-54
2022/01/19 06:48:49;;;;;;;40.97;18.83;;;12.90;2201.60;;;;;;5049760;28;20021;-56
2022/01/19 06:51:14;;;;;;;77.07;34.63;;;12.90;2201.60;;;;;;5054158;28;20029;-56
2022/01/19 06:53:40;;;;;;;53.55;26.80;;;0.20;2201.60;;;;;;5053869;28;20471;-58
2022/01/19 06:56:06;;;;;;;55.08;28.58;;;0.30;2201.60;;;;;;5054154;28;20355;-59
2022/01/19 06:58:32;;;;;;;59.63;25.23;;;0.50;2201.60;;;;;;5053957;28;20021;-59
2022/01/19 07:00:58;;;;;;;32.97;15.18;;;0.60;2201.60;;;;;;5053615;28;20078;-54
2022/01/19 07:03:25;;;;;;;40.97;17.98;;;0.50;2201.60;;;;;;5053754;28;20041;-60
2022/01/19 07:05:51;;;;;;;49.20;24.35;;;0.60;2201.60;;;;;;5053749;28;20037;-54
2022/01/19 07:08:17;;;;;;;68.53;30.50;;;0.70;2201.60;;;;;;5053674;28;20045;-59
2022/01/19 07:10:42;;;;;;;45.08;21.58;;;0.90;2201.60;;;;;;5053765;28;20166;-59
2022/01/19 07:13:08;;;;;;;36.72;18.65;;;25.60;2201.60;;;;;;5053566;28;20166;-55
2022/01/19 07:15:36;;;;;;;39.40;19.92;;;25.70;2201.60;;;;;;5053714;28;20021;-60
2022/01/19 07:18:03;;;;;;;31.98;16.05;;;0.90;2201.60;;;;;;5053443;28;20029;-52
2022/01/19 07:20:28;;;;;;;36.80;18.63;;;25.60;2201.60;;;;;;5037393;28;20519;-60
2022/01/19 07:22:56;;;;;;;32.63;16.10;;;25.70;2201.60;;;;;;5034037;28;20056;-59
2022/01/19 07:25:22;;;;;;;37.35;17.35;;;26.00;2201.60;;;;;;5033306;28;20034;-57
2022/01/19 07:27:48;;;;;;;114.45;62.55;;;26.20;2201.60;;;;;;5033560;28;20026;-57
2022/01/19 07:30:14;;;;;;;140.27;80.97;;;26.40;2201.60;;;;;;5033446;28;20383;-55
2022/01/19 07:32:40;;;;;;;103.10;59.42;;;26.50;2201.60;;;;;;5033128;28;20033;-55
2022/01/19 07:35:06;;;;;;;155.05;83.55;;;26.50;2201.60;;;;;;5033585;28;20442;-64
2022/01/19 07:37:33;;;;;;;85.25;47.15;;;51.30;2227.20;;;;;;5039029;28;20459;-64
2022/01/19 07:39:59;;;;;;;79.15;41.97;;;51.50;2227.20;;;;;;5053194;28;20528;-69
2022/01/19 07:42:26;;;;;;;135.73;74.82;;;51.60;2227.20;;;;;;5053364;28;20035;-68
2022/01/19 07:44:53;;;;;;;190.25;114.90;;;51.60;2227.20;;;;;;5052975;28;20031;-65
2022/01/19 07:47:20;;;;;;;204.95;125.60;;;51.40;2227.20;;;;;;5052846;28;20579;-61
2022/01/19 07:49:46;;;;;;;520.92;318.00;;;51.40;2227.20;;;;;;5052895;28;20021;-63
2022/01/19 07:52:12;;;;;;;476.08;286.30;;;51.40;2227.20;;;;;;5052945;28;20029;-63
2022/01/19 07:54:38;;;;;;;233.20;148.98;;;51.30;2227.20;;;;;;5052496;28;20021;-62
2022/01/19 07:57:04;;;;;;;156.93;100.95;;;51.30;2227.20;;;;;;5044574;28;20379;-58
2022/01/19 07:59:31;;;;;;;117.45;73.00;;;51.40;2227.20;;;;;;5040712;28;20040;-58
2022/01/19 08:01:57;;;;;;;81.50;47.50;;;51.50;2227.20;;;;;;5032666;28;20038;-61
2022/01/19 08:04:23;;;;;;;64.35;38.10;;;51.80;2227.20;;;;;;5033418;28;20049;-64
2022/01/19 08:06:54;;;;;;;52.03;30.00;;;76.80;2227.20;;;;;;5032951;28;20033;-69
2022/01/19 08:09:23;;;;;;;49.90;27.98;;;102.40;2227.20;;;;;;5035808;28;20033;-66
2022/01/19 08:11:49;;;;;;;65.93;36.17;;;128.80;2252.80;;;;;;5032950;28;20029;-68
2022/01/19 08:14:16;;;;;;;89.07;55.15;;;180.00;2124.80;;;;;;5032837;28;20044;-64
2022/01/19 08:16:42;;;;;;;123.57;73.35;;;230.40;1920.00;;;;;;5032265;28;20509;-60
2022/01/19 08:19:08;;;;;;;149.30;90.70;;;230.50;1843.20;;;;;;5032676;28;20101;-70
2022/01/19 08:21:33;;;;;;;131.65;89.30;;;231.30;1766.40;;;;;;5032480;28;20374;-64
2022/01/19 08:23:59;;;;;;;124.88;89.93;;;256.70;1715.20;;;;;;5032491;28;20025;-70
2022/01/19 08:26:25;;;;;;;124.30;90.55;;;307.30;1638.40;;;;;;5032543;28;20447;-69
2022/01/19 08:28:51;;;;;;;132.65;99.53;;;332.90;1561.60;;;;;;5032330;28;20104;-68
2022/01/19 08:31:17;;;;;;;137.55;102.97;;;333.70;1510.40;;;;;;5032240;28;20356;-65
2022/01/19 08:33:43;;;;;;;173.75;129.98;;;359.10;1433.60;;;;;;5032136;28;20082;-66
2022/01/19 08:36:08;;;;;;;138.25;101.75;;;384.20;1382.40;;;;;;5032230;28;20414;-69
2022/01/19 08:38:39;;;;;;;107.10;77.82;;;409.60;1356.80;;;;;;5032283;28;20100;-67
2022/01/19 08:41:05;;;;;;;105.70;77.85;;;409.80;1331.20;;;;;;5032233;28;20022;-67
2022/01/19 08:43:32;;;;;;;65.95;52.00;;;435.30;1280.00;;;;;;5032287;28;20037;-70
2022/01/19 08:45:57;;;;;;;60.95;46.30;;;435.90;1228.80;;;;;;5032037;28;20033;-64
2022/01/19 08:48:23;;;;;;;58.97;40.65;;;435.60;1228.80;;;;;;5031998;28;20030;-70
2022/01/19 08:50:49;;;;;;;83.38;68.80;;;384.90;1280.00;;;;;;5031806;28;20025;-70
2022/01/19 08:53:15;;;;;;;60.42;46.05;;;333.50;1408.00;;;;;;5032220;28;20063;-64
2022/01/19 08:55:41;;;;;;;77.63;53.30;;;333.10;1459.20;;;;;;5031786;28;20033;-67
2022/01/19 08:58:07;;;;;;;92.07;73.93;;;358.40;1408.00;;;;;;5031931;28;20105;-66
2022/01/19 09:00:33;;;;;;;79.40;55.55;;;359.00;1356.80;;;;;;5031661;28;20029;-67
2022/01/19 09:02:59;;;;;;;107.90;86.90;;;384.10;1331.20;;;;;;5031629;28;20054;-69
2022/01/19 09:05:25;;;;;;;99.93;79.35;;;384.60;1305.60;;;;;;5031591;28;20514;-66
2022/01/19 09:07:52;;;;;;;120.15;97.03;;;384.90;1280.00;;;;;;5031167;28;20488;-59
2022/01/19 09:10:18;;;;;;;134.77;103.82;;;409.60;1305.60;;;;;;5031623;28;20024;-60
2022/01/19 09:12:44;;;;;;;129.32;103.63;;;384.90;1280.00;;;;;;5031112;28;20021;-71
2022/01/19 09:15:10;;;;;;;183.02;145.60;;;410.00;1280.00;;;;;;5031188;28;20100;-71
2022/01/19 09:17:36;;;;;;;192.50;157.52;;;384.70;1280.00;;;;;;5031504;28;20033;-70
2022/01/19 09:20:05;;;;;;;140.23;115.88;;;384.90;1254.40;;;;;;5032356;28;20029;-61
2022/01/19 09:22:31;;;;;;;179.30;150.32;;;384.10;1305.60;;;;;;5041850;28;20028;-59
2022/01/19 09:24:57;;;;;;;173.13;143.77;;;359.30;1331.20;;;;;;5038687;28;20452;-59
2022/01/19 09:27:23;;;;;;;159.88;130.40;;;358.70;1356.80;;;;;;5035814;28;20060;-57
2022/01/19 09:29:49;;;;;;;148.50;120.03;;;359.30;1331.20;;;;;;5032802;28;20032;-60
2022/01/19 09:32:15;;;;;;;163.20;134.98;;;358.90;1356.80;;;;;;5041510;28;20046;-59
2022/01/19 09:34:47;;;;;;;128.98;105.57;;;359.10;1331.20;;;;;;5043455;28;20029;-74
2022/01/19 09:37:12;;;;;;;121.20;91.43;;;359.20;1331.20;;;;;;5041391;28;20013;-74
2022/01/19 09:39:39;;;;;;;91.78;70.68;;;384.00;1331.20;;;;;;5039804;28;20033;-70
2022/01/19 09:42:05;;;;;;;95.03;72.88;;;359.20;1331.20;;;;;;5039894;28;20021;-65
2022/01/19 09:44:31;;;;;;;70.85;48.95;;;359.10;1331.20;;;;;;5036447;28;20108;-59
2022/01/19 09:46:58;;;;;;;60.88;45.15;;;358.60;1382.40;;;;;;5038498;28;20159;-59
2022/01/19 09:49:24;;;;;;;65.53;49.22;;;358.50;1382.40;;;;;;5040074;28;20519;-59
2022/01/19 09:51:52;;;;;;;76.82;59.67;;;358.90;1356.80;;;;;;5039273;28;20039;-59
2022/01/19 09:54:20;;;;;;;92.45;69.32;;;359.00;1331.20;;;;;;5040882;28;20013;-59
2022/01/19 09:56:47;;;;;;;164.15;129.00;;;358.90;1356.80;;;;;;5040776;28;20021;-59
2022/01/19 09:59:14;;;;;;;60.28;45.67;;;358.80;1356.80;;;;;;5038875;28;20102;-59
2022/01/19 10:01:55;;;;;;;79.32;57.03;;;333.70;1382.40;;;;;;5040186;28;20025;-59
2022/01/19 10:04:27;;;;;;;45.45;36.00;;;333.20;1408.00;;;;;;5039333;28;20025;-59
2022/01/19 10:07:31;;;;;;;150.55;107.65;;;307.80;1408.00;;;;;;5038793;28;20056;-71
2022/01/19 10:10:06;;;;;;;90.80;60.00;;;282.10;1484.80;;;;;;5039507;28;20480;-59
2022/01/19 10:18:29;;;;;;;37.67;21.30;;;231.30;1536.00;;;;;;5038887;28;20032;-58
2022/01/19 10:21:13;;;;;;;45.35;25.38;;;231.00;1561.60;;;;;;5036692;28;20376;-58
2022/01/19 10:23:48;;;;;;;81.15;53.08;;;230.80;1612.80;;;;;;5038007;28;20461;-59
2022/01/19 10:26:25;;;;;;;48.05;31.73;;;230.50;1638.40;;;;;;5037880;28;20139;-58
2022/01/19 10:29:07;;;;;;;66.97;38.30;;;205.60;1664.00;;;;;;5037827;28;20106;-58
2022/01/19 10:31:35;;;;;;;62.97;33.67;;;205.50;1689.60;;;;;;5038579;28;20037;-58
2022/01/19 10:34:20;;;;;;;54.60;31.90;;;205.50;1664.00;;;;;;5036893;28;20128;-58
2022/01/19 10:37:05;;;;;;;53.08;29.08;;;205.20;1689.60;;;;;;5037801;28;20056;-58
2022/01/19 10:39:46;;;;;;;64.13;35.05;;;205.10;1689.60;;;;;;5035895;28;20032;-62
2022/01/19 10:42:15;;;;;;;99.30;62.00;;;205.10;1715.20;;;;;;5040162;28;20083;-73
2022/01/19 10:44:47;;;;;;;72.28;42.95;;;205.40;1715.20;;;;;;5039607;28;20025;-59
2022/01/19 10:47:15;;;;;;;53.75;32.33;;;205.50;1689.60;;;;;;5041136;28;20024;-59
2022/01/19 10:49:56;;;;;;;37.78;22.52;;;205.50;1689.60;;;;;;5038728;28;20498;-58
2022/01/19 10:52:28;;;;;;;30.80;17.10;;;205.30;1664.00;;;;;;5038822;28;20025;-58
2022/01/19 10:54:57;;;;;;;18.77;12.63;;;205.30;1664.00;;;;;;5038502;28;20025;-59
2022/01/19 10:57:23;;;;;;;14.20;5.88;;;205.20;1638.40;;;;;;5039486;28;20018;-58
2022/01/19 10:59:50;;;;;;;12.35;4.97;;;205.20;1612.80;;;;;;5037783;28;20017;-71
2022/01/19 11:02:17;;;;;;;6.88;4.65;;;205.30;1587.20;;;;;;5040166;28;20033;-73
2022/01/19 11:04:44;;;;;;;20.00;12.38;;;205.30;1612.80;;;;;;5039050;28;20029;-58
2022/01/19 11:07:15;;;;;;;38.95;24.95;;;205.20;1612.80;;;;;;5049518;28;20045;-59
2022/01/19 11:09:57;;;;;;;33.83;22.63;;;205.10;1638.40;;;;;;5049654;28;20459;-62
2022/01/19 11:12:27;;;;;;;20.63;13.50;;;204.90;1638.40;;;;;;5049613;28;20017;-59
2022/01/19 11:14:53;;;;;;;19.83;9.52;;;204.90;1638.40;;;;;;5049741;28;20033;-63
2022/01/19 11:17:19;;;;;;;28.52;17.77;;;180.00;1664.00;;;;;;5048063;28;20041;-59
2022/01/19 11:19:45;;;;;;;27.50;17.30;;;179.80;1664.00;;;;;;5049587;28;20033;-60
2022/01/19 11:22:48;;;;;;;20.13;11.68;;;179.80;1664.00;;;;;;5049417;28;20029;-60
2022/01/19 11:25:40;;;;;;;19.13;11.87;;;180.00;1638.40;;;;;;5049658;28;20037;-59
2022/01/19 11:28:06;;;;;;;19.95;10.27;;;180.00;1638.40;;;;;;5049839;28;20281;-59
2022/01/19 11:30:34;;;;;;;28.33;11.85;;;204.80;1638.40;;;;;;5049585;28;20526;-62
2022/01/19 11:33:15;;;;;;;11.07;6.40;;;204.90;1638.40;;;;;;5049590;28;20037;-59
2022/01/19 11:35:47;;;;;;;11.20;5.85;;;205.00;1638.40;;;;;;5050663;28;20100;-59
2022/01/19 11:38:35;;;;;;;9.77;5.93;;;205.10;1638.40;;;;;;5053233;28;20021;-60
2022/01/19 11:41:23;;;;;;;12.10;5.13;;;205.20;1612.80;;;;;;5053313;28;20089;-59
2022/01/19 11:43:55;;;;;;;15.35;7.93;;;205.20;1664.00;;;;;;5053034;28;20021;-60
2022/01/19 11:46:31;;;;;;;14.90;7.18;;;205.20;1638.40;;;;;;5053053;28;20135;-60
2022/01/19 11:49:03;;;;;;;13.93;4.97;;;205.30;1638.40;;;;;;5053018;28;20036;-60
2022/01/19 11:51:35;;;;;;;9.82;5.30;;;205.30;1612.80;;;;;;5053119;28;20061;-61
2022/01/19 11:54:03;;;;;;;19.77;7.53;;;205.30;1612.80;;;;;;5052959;28;20454;-60
2022/01/19 11:56:29;;;;;;;12.23;9.18;;;205.40;1587.20;;;;;;5052911;28;20029;-61
2022/01/19 11:59:02;;;;;;;24.83;12.07;;;205.20;1612.80;;;;;;5053043;28;20190;-60
2022/01/19 12:01:28;;;;;;;25.58;14.73;;;205.10;1612.80;;;;;;5052787;28;20079;-61
2022/01/19 12:04:12;;;;;;;29.00;18.02;;;205.00;1612.80;;;;;;5053025;28;20041;-60
2022/01/19 12:06:38;;;;;;;36.83;17.65;;;205.20;1638.40;;;;;;5052321;28;20048;-61
2022/01/19 12:09:06;;;;;;;22.17;11.48;;;205.20;1612.80;;;;;;5052719;28;20033;-60
2022/01/19 12:11:35;;;;;;;22.85;11.25;;;205.00;1612.80;;;;;;5052636;28;20044;-60
2022/01/19 12:14:11;;;;;;;39.03;21.10;;;205.20;1638.40;;;;;;5052560;28;20075;-60
2022/01/19 12:19:10;;;;;;;35.65;20.80;;;204.90;1715.20;;;;;;5052631;28;20017;-60
2022/01/19 12:21:55;;;;;;;32.08;17.20;;;204.80;1740.80;;;;;;5052498;28;20029;-60
2022/01/19 12:24:32;;;;;;;27.65;15.45;;;179.90;1740.80;;;;;;5052933;28;20039;-60
2022/01/19 12:27:05;;;;;;;46.42;24.02;;;180.00;1715.20;;;;;;5053061;28;20029;-60
2022/01/19 12:29:36;;;;;;;64.47;33.33;;;180.00;1740.80;;;;;;5052893;28;20029;-74
2022/01/19 12:32:15;;;;;;;54.15;29.42;;;180.00;1766.40;;;;;;5051132;28;20437;-71
2022/01/19 12:34:45;;;;;;;75.82;40.58;;;204.80;1766.40;;;;;;5052305;28;20032;-61
2022/01/19 12:37:27;;;;;;;68.32;40.05;;;180.10;1766.40;;;;;;5052008;28;20075;-67
2022/01/19 12:39:53;;;;;;;50.83;30.17;;;204.90;1740.80;;;;;;5052105;28;20075;-67
2022/01/19 12:42:26;;;;;;;49.45;30.30;;;204.90;1740.80;;;;;;5052272;28;20111;-70
2022/01/19 12:44:55;;;;;;;47.20;23.73;;;204.90;1740.80;;;;;;5052077;28;20069;-70
2022/01/19 12:47:24;;;;;;;59.90;35.50;;;180.00;1766.40;;;;;;5050832;28;20074;-74
2022/01/19 12:50:08;;;;;;;84.05;47.47;;;179.90;1740.80;;;;;;5051753;28;20025;-65
2022/01/19 12:52:39;;;;;;;70.55;42.05;;;180.00;1766.40;;;;;;5052199;28;20029;-61
2022/01/19 12:55:13;;;;;;;46.47;26.52;;;179.90;1792.00;;;;;;5051941;28;20035;-71
2022/01/19 12:57:38;;;;;;;40.20;25.52;;;180.00;1766.40;;;;;;5049247;28;20147;-61
2022/01/19 13:00:17;;;;;;;90.35;46.03;;;179.90;1766.40;;;;;;5050219;28;20029;-68
2022/01/19 13:02:43;;;;;;;64.50;39.85;;;179.90;1766.40;;;;;;5050289;28;20041;-64
2022/01/19 13:05:14;;;;;;;53.25;32.45;;;180.00;1740.80;;;;;;5049948;28;20501;-70
2022/01/19 13:07:54;;;;;;;68.13;38.97;;;180.10;1740.80;;;;;;5049767;28;20064;-70
2022/01/19 13:10:26;;;;;;;69.80;37.17;;;180.00;1740.80;;;;;;5049460;28;20025;-66
2022/01/19 13:13:09;;;;;;;76.95;40.67;;;180.00;1740.80;;;;;;5050052;28;20550;-68
2022/01/19 13:15:42;;;;;;;;;;;180.00;1740.80;;;;;;5050449;28;20021;-65
2022/01/19 13:18:14;;;;;;;92.13;46.97;;;180.00;1715.20;;;;;;5049760;28;20000;-67
2022/01/19 13:20:55;;;;;;;159.85;74.93;;;179.90;1740.80;;;;;;5049556;28;20254;-70
2022/01/19 13:23:23;;;;;;;120.93;63.13;;;180.00;1715.20;;;;;;5049146;28;20060;-69
2022/01/19 13:26:06;;;;;;;146.63;86.82;;;180.00;1715.20;;;;;;5049474;28;20032;-60
2022/01/19 13:28:34;;;;;;;117.70;68.38;;;179.80;1766.40;;;;;;5049765;28;20025;-70
2022/01/19 13:31:10;;;;;;;73.40;44.28;;;180.00;1740.80;;;;;;5049519;28;20055;-62
2022/01/19 13:33:36;;;;;;;38.30;23.85;;;180.00;1740.80;;;;;;5049799;28;20040;-60
2022/01/19 13:36:03;;;;;;;69.57;38.17;;;180.10;1740.80;;;;;;5048970;28;20072;-75
2022/01/19 13:38:29;;;;;;;56.58;30.58;;;180.10;1740.80;;;;;;5049598;28;20416;-67
2022/01/19 13:41:06;;;;;;;46.83;29.85;;;180.00;1766.40;;;;;;5049501;28;20068;-61
2022/01/19 13:43:34;;;;;;;44.83;28.35;;;180.00;1766.40;;;;;;5051299;28;20553;-63
2022/01/19 13:46:12;;;;;;;92.47;53.45;;;180.00;1766.40;;;;;;5050996;28;20376;-60